Aérodrome :
LOGIN :

S'inscrire | Disclaimer

   EN    FR    IT 

 










Légende :    VFR   VFR Marginal   IFR   IFR Intensif   IFR Très Intensif
Visi : 
Plafond : 
>= 8 km
>= 3000ft
5 à 8 km
1000 à 3000 ft
1500m à 5 km
500 à 1000 ft
800 à 1500m
200 à 500 ft
< 800m
< 200 ft
Symboles :   Orages  Brouillard  Fortes neiges  Fortes précipitations  Vent > 20 kt
SIGMETs :   Divers  Orages  Givrage  Turbulence  Onde Orograph.  Cendres Volcan.







- Altitude de l'aérodrome : 41 ft


LIRE - Pratica di Mare Air Base Pomezia

DERNIER METAR :
  • 202155Z 02003KT CAVOK 21/19 Q1014 RMK SKC VIS MIN 9999 WIND THR13 04002KT WIND THR31 03002KT BLU

METARs EXPIRÉS :
  • 202055Z 36003KT CAVOK 21/19 Q1014 RMK SKC VIS MIN 9999 WIND THR13 35003KT WIND THR31 36003KT BLU
  • 201955Z 01002KT CAVOK 23/20 Q1013 RMK SKC VIS MIN 9999 WIND THR13 02002KT WIND THR31 02002KT BLU

TAF TAF LIRE
Valide du 20 à 21h jusqu'au 21 à 06h UTC


202000Z 2021/2106 VRB03KT CAVOK
Pas de NOTAMs connus pour ce terrain.



MET'MAP, la Météo Aéronautique d'un coup d'oeil ! - Copyright ORBIFLY Décembre 2007 - Disclaimer

ORBIFLY MET'MAP TEAM :

Programmation & Développement : Alexandra Zaïnal
Conception & Développement : Baudouin d'Aumeries
Co-Programmation & Développement : Marc-Olivier Méhu
Soutien technique & logistique : Manuel Goepfert

Contact : metmap@orbifly.com




SOURCES & CREDITS :

   NOAA